Time;durP1;ratioP1;P1;durP2;ratioP2;P2;SDS_P1;SDS_P2;PMS_P1;PMS_P2;Temp;Humidity;BMP_temperature;BMP_pressure;BME280_temperature;BME280_humidity;BME280_pressure;Samples;Min_cycle;Max_cycle;Signal;HPM_P1;HPM_P2
2023/05/30 00:01:18;;;;;;;3.35;2.78;;;24.60;38.10;;;;;;5065456;28;45347;-72
2023/05/30 00:03:46;;;;;;;3.97;2.95;;;24.60;38.00;;;;;;5065384;28;45412;-72
2023/05/30 00:06:13;;;;;;;3.38;2.67;;;24.50;38.10;;;;;;5066030;28;46644;-72
2023/05/30 00:08:40;;;;;;;4.40;2.72;;;24.50;38.20;;;;;;5068760;28;45403;-72
2023/05/30 00:11:08;;;;;;;3.90;2.67;;;24.50;38.20;;;;;;5068900;28;45434;-72
2023/05/30 00:13:35;;;;;;;3.90;2.90;;;24.40;38.20;;;;;;5068995;28;45411;-72
2023/05/30 00:16:03;;;;;;;3.47;2.67;;;24.40;38.80;;;;;;5068411;28;47333;-72
2023/05/30 00:18:34;;;;;;;3.42;2.70;;;24.40;38.30;;;;;;5068671;28;45536;-71
2023/05/30 00:21:02;;;;;;;3.88;2.80;;;24.30;38.40;;;;;;5068873;28;45190;-72
2023/05/30 00:23:29;;;;;;;3.55;2.88;;;24.30;38.30;;;;;;5068840;28;45558;-72
2023/05/30 00:25:57;;;;;;;3.55;3.10;;;24.30;38.50;;;;;;5068408;28;45543;-72
2023/05/30 00:28:26;;;;;;;3.20;2.72;;;24.20;38.50;;;;;;5068619;28;45252;-72
2023/05/30 00:30:53;;;;;;;3.85;2.35;;;24.20;38.70;;;;;;5068381;28;45317;-72
2023/05/30 00:33:20;;;;;;;3.45;2.83;;;24.10;38.70;;;;;;5068535;28;45360;-72
2023/05/30 00:35:47;;;;;;;4.07;2.88;;;24.10;38.80;;;;;;5068102;28;46431;-72
2023/05/30 00:38:14;;;;;;;3.55;2.47;;;24.00;38.70;;;;;;5067903;28;45363;-72
2023/05/30 00:40:41;;;;;;;3.65;3.00;;;24.00;38.90;;;;;;5067803;28;45308;-72
2023/05/30 00:43:08;;;;;;;3.20;2.90;;;24.00;39.00;;;;;;5068572;28;45265;-72
2023/05/30 00:45:36;;;;;;;3.67;3.00;;;24.00;39.00;;;;;;5067950;28;46404;-72
2023/05/30 00:48:03;;;;;;;3.42;3.13;;;23.90;38.90;;;;;;5068107;28;45323;-72
2023/05/30 00:50:30;;;;;;;3.80;2.90;;;23.90;38.90;;;;;;5068180;28;45297;-71
2023/05/30 00:52:57;;;;;;;2.92;2.55;;;23.90;39.70;;;;;;5068690;28;45260;-72
2023/05/30 00:55:24;;;;;;;3.28;2.55;;;23.80;39.00;;;;;;5067666;28;46720;-72
2023/05/30 00:57:51;;;;;;;3.03;2.47;;;23.80;39.00;;;;;;5067856;28;45390;-73
2023/05/30 01:00:19;;;;;;;3.08;2.75;;;23.80;39.10;;;;;;5067910;28;45454;-73
2023/05/30 01:02:48;;;;;;;4.00;2.58;;;23.80;39.10;;;;;;5068330;28;45332;-72
2023/05/30 01:05:15;;;;;;;4.22;2.88;;;23.80;39.20;;;;;;5067770;28;46639;-72
2023/05/30 01:07:43;;;;;;;2.95;2.65;;;23.80;39.20;;;;;;5067926;28;45496;-72
2023/05/30 01:10:11;;;;;;;3.13;2.83;;;23.70;39.20;;;;;;5068118;28;45204;-72
2023/05/30 01:12:40;;;;;;;3.17;2.50;;;23.70;39.20;;;;;;5068510;28;45173;-72
2023/05/30 01:15:10;;;;;;;3.17;2.50;;;23.70;39.20;;;;;;5067666;28;46399;-73
2023/05/30 01:17:42;;;;;;;3.80;2.85;;;23.70;39.30;;;;;;5066700;28;45130;-73
2023/05/30 01:20:12;;;;;;;3.00;2.55;;;23.60;39.90;;;;;;5068050;28;45276;-72
2023/05/30 01:22:48;;;;;;;2.97;2.67;;;23.60;39.30;;;;;;5067944;28;45434;-71
2023/05/30 01:25:23;;;;;;;2.97;2.67;;;23.60;39.40;;;;;;5067599;28;47024;-72
2023/05/30 01:28:06;;;;;;;2.80;2.60;;;23.60;39.40;;;;;;5067801;28;45375;-72
2023/05/30 01:30:34;;;;;;;2.78;2.40;;;23.50;39.40;;;;;;5067712;28;45193;-73
2023/05/30 01:33:01;;;;;;;2.90;2.63;;;23.60;39.50;;;;;;5067843;28;45422;-72
2023/05/30 01:35:27;;;;;;;3.40;2.80;;;23.50;39.40;;;;;;5067152;28;45469;-72
2023/05/30 01:37:54;;;;;;;3.03;2.53;;;23.50;39.50;;;;;;5066665;28;45311;-71
2023/05/30 01:40:23;;;;;;;2.67;2.28;;;23.50;39.50;;;;;;5067244;28;45274;-72
2023/05/30 01:42:51;;;;;;;2.72;2.53;;;23.50;39.60;;;;;;5067616;28;45501;-72
2023/05/30 01:45:21;;;;;;;3.97;3.22;;;23.50;39.60;;;;;;5067174;28;46785;-72
2023/05/30 01:47:52;;;;;;;2.55;2.30;;;23.50;39.60;;;;;;5067307;28;45268;-72
2023/05/30 01:50:20;;;;;;;2.40;2.20;;;23.40;39.70;;;;;;5067750;28;45300;-72
2023/05/30 01:52:51;;;;;;;2.90;2.42;;;23.40;40.30;;;;;;5067473;28;45294;-72
2023/05/30 01:55:18;;;;;;;2.85;2.58;;;23.40;39.60;;;;;;5066927;28;46397;-72
2023/05/30 01:57:46;;;;;;;3.38;2.40;;;23.40;39.70;;;;;;5067118;28;45297;-72
2023/05/30 02:00:14;;;;;;;2.45;2.25;;;23.40;39.80;;;;;;5067318;28;45215;-72
2023/05/30 02:02:42;;;;;;;3.22;2.60;;;23.30;39.70;;;;;;5067274;28;45367;-72
2023/05/30 02:05:09;;;;;;;2.63;2.42;;;23.40;39.90;;;;;;5066891;28;46394;-72
2023/05/30 02:07:36;;;;;;;2.90;2.63;;;23.30;39.90;;;;;;5066700;28;45344;-72
2023/05/30 02:10:03;;;;;;;2.90;2.58;;;23.40;39.90;;;;;;5067187;28;45166;-72
2023/05/30 02:12:30;;;;;;;3.25;2.42;;;23.30;39.80;;;;;;5067134;28;45320;-72
2023/05/30 02:14:57;;;;;;;3.30;2.40;;;23.30;40.00;;;;;;5066665;28;46145;-72
2023/05/30 02:17:25;;;;;;;3.17;2.58;;;23.30;40.00;;;;;;5066837;28;45660;-73
2023/05/30 02:19:53;;;;;;;3.22;2.65;;;23.30;40.00;;;;;;5066970;28;45301;-72
2023/05/30 02:22:21;;;;;;;3.35;2.65;;;23.30;40.00;;;;;;5067039;28;45454;-72
2023/05/30 02:24:48;;;;;;;2.63;2.42;;;23.30;40.10;;;;;;5066696;28;47542;-72
2023/05/30 02:27:15;;;;;;;3.17;2.80;;;23.20;40.10;;;;;;5066253;28;45300;-72
2023/05/30 02:29:41;;;;;;;2.78;2.40;;;23.20;40.10;;;;;;5065596;28;45316;-73
2023/05/30 02:32:09;;;;;;;2.80;2.55;;;23.20;40.10;;;;;;5066829;28;45494;-73
2023/05/30 02:34:36;;;;;;;2.55;2.30;;;23.20;40.20;;;;;;5066388;28;46409;-72
2023/05/30 02:37:05;;;;;;;2.90;2.60;;;23.20;40.20;;;;;;5066421;28;45299;-72
2023/05/30 02:39:32;;;;;;;2.30;2.10;;;23.20;40.20;;;;;;5066575;28;45250;-72
2023/05/30 02:41:59;;;;;;;2.33;2.13;;;23.10;40.20;;;;;;5067194;28;45295;-72
2023/05/30 02:44:26;;;;;;;2.47;2.20;;;23.10;40.10;;;;;;5066221;28;46396;-72
2023/05/30 02:46:52;;;;;;;2.65;2.45;;;23.10;40.20;;;;;;5066273;28;45327;-73
2023/05/30 02:49:20;;;;;;;2.92;2.40;;;23.10;40.20;;;;;;5066620;28;45479;-72
2023/05/30 02:51:47;;;;;;;3.45;2.50;;;23.10;40.30;;;;;;5066851;28;45348;-72
2023/05/30 02:54:15;;;;;;;2.55;2.22;;;23.00;40.20;;;;;;5065962;28;46711;-72
2023/05/30 02:56:42;;;;;;;3.53;2.30;;;23.00;40.30;;;;;;5066061;28;45438;-72
2023/05/30 02:59:09;;;;;;;3.47;2.67;;;23.00;40.30;;;;;;5066510;28;45475;-72
2023/05/30 03:01:36;;;;;;;3.45;2.80;;;23.00;40.30;;;;;;5066278;28;45262;-72
2023/05/30 03:04:03;;;;;;;4.25;2.10;;;23.00;40.40;;;;;;5066385;28;45206;-72
2023/05/30 03:06:31;;;;;;;3.35;2.20;;;22.90;40.30;;;;;;5066177;28;45319;-73
2023/05/30 03:09:00;;;;;;;2.83;2.53;;;22.90;40.40;;;;;;5066397;28;45373;-72
2023/05/30 03:11:28;;;;;;;2.60;2.17;;;22.90;40.50;;;;;;5066415;28;45498;-72
2023/05/30 03:13:55;;;;;;;2.75;2.40;;;22.90;40.50;;;;;;5065183;28;46751;-72
2023/05/30 03:16:21;;;;;;;2.55;2.35;;;22.90;40.50;;;;;;5065662;28;45360;-72
2023/05/30 03:18:49;;;;;;;2.45;2.25;;;22.80;40.50;;;;;;5066145;28;45406;-72
2023/05/30 03:21:16;;;;;;;2.40;2.20;;;22.80;40.50;;;;;;5066396;28;45546;-72
2023/05/30 03:23:43;;;;;;;2.78;2.50;;;22.80;40.50;;;;;;5065837;28;46617;-72
2023/05/30 03:26:09;;;;;;;3.05;2.28;;;22.80;40.60;;;;;;5066194;28;45319;-72
2023/05/30 03:28:38;;;;;;;2.45;2.22;;;22.80;40.60;;;;;;5065843;28;45388;-72
2023/05/30 03:31:04;;;;;;;2.78;2.50;;;22.70;40.60;;;;;;5066092;28;45400;-73
2023/05/30 03:33:31;;;;;;;2.40;2.20;;;22.70;40.60;;;;;;5065870;28;45500;-71
2023/05/30 03:35:58;;;;;;;3.38;2.70;;;22.70;40.70;;;;;;5065492;28;45307;-72
2023/05/30 03:38:25;;;;;;;2.30;2.10;;;22.70;40.70;;;;;;5066045;28;45276;-72
2023/05/30 03:40:52;;;;;;;2.20;2.08;;;22.70;40.80;;;;;;5066247;28;45495;-72
2023/05/30 03:43:18;;;;;;;3.22;2.38;;;22.70;40.80;;;;;;5069157;28;47228;-72
2023/05/30 03:45:47;;;;;;;2.30;2.10;;;22.60;40.80;;;;;;5068955;28;45336;-73
2023/05/30 03:48:13;;;;;;;2.30;2.10;;;22.60;40.90;;;;;;5069264;28;45126;-72
2023/05/30 03:50:40;;;;;;;3.13;2.10;;;22.60;40.90;;;;;;5069619;28;45435;-72
2023/05/30 03:53:07;;;;;;;2.60;2.22;;;22.60;41.00;;;;;;5069003;28;45343;-72
2023/05/30 03:55:34;;;;;;;3.40;2.25;;;22.60;41.10;;;;;;5069203;28;45372;-73
2023/05/30 03:58:01;;;;;;;3.30;2.30;;;22.60;41.10;;;;;;5068309;28;45322;-73
2023/05/30 04:00:28;;;;;;;2.38;2.10;;;22.50;41.00;;;;;;5069674;28;45222;-72
2023/05/30 04:02:58;;;;;;;2.60;2.25;;;22.50;41.10;;;;;;5068675;28;46440;-72
2023/05/30 04:05:25;;;;;;;2.63;2.30;;;22.50;41.10;;;;;;5068886;28;45255;-72
2023/05/30 04:07:52;;;;;;;3.40;2.33;;;22.50;41.20;;;;;;5068878;28;45337;-72
2023/05/30 04:10:20;;;;;;;2.30;2.10;;;22.50;41.30;;;;;;5073533;28;45246;-72
2023/05/30 04:12:47;;;;;;;4.25;2.40;;;22.50;41.30;;;;;;5068484;28;45372;-71
2023/05/30 04:15:14;;;;;;;3.10;2.08;;;22.50;41.30;;;;;;5068771;28;45324;-72
2023/05/30 04:17:41;;;;;;;3.25;2.40;;;22.50;41.40;;;;;;5070257;28;45264;-72
2023/05/30 04:20:11;;;;;;;2.53;2.15;;;22.50;41.30;;;;;;5069114;28;45131;-72
2023/05/30 04:22:38;;;;;;;2.90;2.60;;;22.50;41.40;;;;;;5068564;28;45439;-72
2023/05/30 04:25:06;;;;;;;2.72;2.30;;;22.40;41.30;;;;;;5068919;28;45351;-72
2023/05/30 04:27:34;;;;;;;3.33;2.30;;;22.40;41.40;;;;;;5068657;28;45464;-72
2023/05/30 04:30:03;;;;;;;2.25;2.05;;;22.40;41.20;;;;;;5068758;28;45395;-72
2023/05/30 04:32:33;;;;;;;2.58;2.38;;;22.40;41.30;;;;;;5068439;28;46582;-71
2023/05/30 04:35:02;;;;;;;2.35;2.13;;;22.40;41.40;;;;;;5068291;28;45319;-73
2023/05/30 04:37:30;;;;;;;1.98;1.73;;;22.40;41.40;;;;;;5068487;28;45292;-73
2023/05/30 04:39:57;;;;;;;4.18;2.30;;;22.40;41.50;;;;;;5068628;28;45368;-73
2023/05/30 04:42:26;;;;;;;3.08;2.20;;;22.40;41.40;;;;;;5068219;28;45469;-72
2023/05/30 04:44:53;;;;;;;2.45;2.15;;;22.40;41.50;;;;;;5068160;28;45304;-73
2023/05/30 04:47:21;;;;;;;3.03;2.17;;;22.40;41.50;;;;;;5067786;28;45482;-71
2023/05/30 04:49:48;;;;;;;2.03;1.83;;;22.40;41.50;;;;;;5068830;28;45261;-73
2023/05/30 04:52:16;;;;;;;2.42;2.22;;;22.30;41.40;;;;;;5067880;28;45472;-73
2023/05/30 04:54:44;;;;;;;3.10;2.15;;;22.40;41.50;;;;;;5068224;28;45299;-73
2023/05/30 04:57:12;;;;;;;3.17;2.20;;;22.40;41.60;;;;;;5068140;28;45405;-73
2023/05/30 04:59:39;;;;;;;2.33;2.13;;;22.40;41.50;;;;;;5068544;28;45217;-73
2023/05/30 05:02:06;;;;;;;2.30;2.10;;;22.30;41.50;;;;;;5067725;28;46580;-72
2023/05/30 05:04:32;;;;;;;3.75;2.28;;;22.30;41.50;;;;;;5067941;28;45325;-74
2023/05/30 05:06:59;;;;;;;2.55;2.13;;;22.30;41.50;;;;;;5067958;28;45467;-74
2023/05/30 05:09:26;;;;;;;3.65;2.22;;;22.30;41.50;;;;;;5068216;28;45240;-73
2023/05/30 05:11:55;;;;;;;2.20;2.00;;;22.30;41.50;;;;;;5067812;28;46663;-73
2023/05/30 05:14:22;;;;;;;2.42;2.20;;;22.30;41.60;;;;;;5068863;28;45402;-73
2023/05/30 05:16:49;;;;;;;2.13;2.03;;;22.30;41.60;;;;;;5067680;28;45518;-73
2023/05/30 05:19:16;;;;;;;2.83;2.40;;;22.30;41.60;;;;;;5068291;28;45477;-74
2023/05/30 05:21:43;;;;;;;3.03;2.05;;;22.30;41.60;;;;;;5067285;28;46396;-74
2023/05/30 05:24:10;;;;;;;3.20;2.40;;;22.30;41.70;;;;;;5067781;28;45256;-73
2023/05/30 05:26:37;;;;;;;2.30;1.95;;;22.30;41.60;;;;;;5067471;28;45438;-73
2023/05/30 05:29:05;;;;;;;4.25;2.30;;;22.30;41.60;;;;;;5067396;28;45318;-73
2023/05/30 05:31:33;;;;;;;2.47;2.22;;;22.30;41.60;;;;;;5066632;28;46282;-72
2023/05/30 05:33:59;;;;;;;1.88;1.77;;;22.30;41.70;;;;;;5066950;28;45181;-74
2023/05/30 05:36:26;;;;;;;2.22;1.98;;;22.30;41.70;;;;;;5067302;28;45324;-73
2023/05/30 05:38:53;;;;;;;3.90;2.30;;;22.30;41.70;;;;;;5067562;28;45410;-74
2023/05/30 05:41:20;;;;;;;3.30;1.80;;;22.30;41.70;;;;;;5067209;28;45834;-73
2023/05/30 05:43:47;;;;;;;2.20;2.00;;;22.30;41.80;;;;;;5067324;28;45277;-74
2023/05/30 05:46:15;;;;;;;2.38;2.10;;;22.30;41.80;;;;;;5067478;28;45287;-73
2023/05/30 05:48:42;;;;;;;4.13;1.95;;;22.30;42.40;;;;;;5067557;28;45465;-74
2023/05/30 05:51:09;;;;;;;2.22;2.03;;;22.30;41.90;;;;;;5067261;28;45445;-74
2023/05/30 05:53:35;;;;;;;3.00;2.10;;;22.30;41.90;;;;;;5067289;28;45405;-73
2023/05/30 05:56:02;;;;;;;2.33;2.13;;;22.30;42.00;;;;;;5067269;28;45420;-73
2023/05/30 05:58:29;;;;;;;2.70;2.00;;;22.30;42.00;;;;;;5067718;28;45502;-73
2023/05/30 06:00:56;;;;;;;3.42;2.45;;;22.30;42.00;;;;;;5064225;28;45316;-73
2023/05/30 06:03:24;;;;;;;2.25;2.05;;;22.30;42.00;;;;;;5066237;27;45404;-73
2023/05/30 06:05:51;;;;;;;2.30;2.10;;;22.30;42.10;;;;;;5066906;28;45497;-73
2023/05/30 06:08:18;;;;;;;3.05;2.17;;;22.30;42.00;;;;;;5067027;28;45430;-73
2023/05/30 06:10:45;;;;;;;3.03;2.33;;;22.30;42.10;;;;;;5067055;28;46479;-73
2023/05/30 06:13:11;;;;;;;2.58;2.10;;;22.30;42.20;;;;;;5067113;28;45413;-73
2023/05/30 06:15:38;;;;;;;2.47;2.15;;;22.30;42.20;;;;;;5066439;28;45403;-73
2023/05/30 06:18:05;;;;;;;3.00;2.30;;;22.30;42.20;;;;;;5066980;28;45606;-73
2023/05/30 06:20:33;;;;;;;2.17;1.98;;;22.30;42.30;;;;;;5066866;27;45292;-73
2023/05/30 06:23:00;;;;;;;2.33;2.13;;;22.40;42.40;;;;;;5066604;28;45275;-73
2023/05/30 06:25:27;;;;;;;3.60;1.92;;;22.40;42.40;;;;;;5067071;28;45356;-73
2023/05/30 06:27:54;;;;;;;2.30;2.10;;;22.40;42.50;;;;;;5067102;28;45328;-74
2023/05/30 06:30:21;;;;;;;2.15;1.95;;;22.40;42.50;;;;;;5066778;28;46643;-73
2023/05/30 06:32:48;;;;;;;3.97;2.22;;;22.40;42.50;;;;;;5066505;28;45319;-73
2023/05/30 06:35:15;;;;;;;3.15;2.00;;;22.40;42.50;;;;;;5066894;28;45173;-73
2023/05/30 06:37:43;;;;;;;3.08;2.38;;;22.40;42.50;;;;;;5066843;28;45403;-72
2023/05/30 06:40:10;;;;;;;2.25;2.00;;;22.40;42.40;;;;;;5066376;28;47578;-73
2023/05/30 06:42:37;;;;;;;4.85;2.30;;;22.40;42.50;;;;;;5066601;28;45394;-73
2023/05/30 06:45:05;;;;;;;2.38;2.05;;;22.40;42.50;;;;;;5066257;28;45261;-73
2023/05/30 06:47:32;;;;;;;2.78;2.25;;;22.50;42.50;;;;;;5066914;28;45428;-73
2023/05/30 06:49:59;;;;;;;3.33;2.10;;;22.50;42.50;;;;;;5066302;28;46470;-72
2023/05/30 06:52:26;;;;;;;3.83;1.95;;;22.50;42.50;;;;;;5066210;28;45399;-72
2023/05/30 06:54:54;;;;;;;2.55;2.15;;;22.50;42.50;;;;;;5066481;28;45336;-73
2023/05/30 06:57:21;;;;;;;2.78;1.90;;;22.50;42.60;;;;;;5066642;28;45300;-72
2023/05/30 06:59:47;;;;;;;2.83;2.42;;;22.50;42.60;;;;;;5063218;28;45345;-72
2023/05/30 07:02:14;;;;;;;3.67;2.03;;;22.50;42.60;;;;;;5065765;28;45375;-72
2023/05/30 07:04:41;;;;;;;2.70;2.10;;;22.50;42.70;;;;;;5066754;28;45352;-72
2023/05/30 07:07:09;;;;;;;2.72;1.92;;;22.50;42.60;;;;;;5066288;28;45411;-72
2023/05/30 07:09:35;;;;;;;2.60;1.95;;;22.60;42.70;;;;;;5066246;28;47607;-72
2023/05/30 07:12:04;;;;;;;2.20;2.00;;;22.60;42.70;;;;;;5066100;28;45461;-73
2023/05/30 07:14:31;;;;;;;3.28;2.28;;;22.60;42.70;;;;;;5066192;28;45403;-72
2023/05/30 07:16:58;;;;;;;2.67;2.35;;;22.60;42.60;;;;;;5069831;28;45344;-72
2023/05/30 07:19:25;;;;;;;2.90;1.85;;;22.60;42.70;;;;;;5069548;28;46584;-72
2023/05/30 07:21:52;;;;;;;3.20;2.10;;;22.60;42.70;;;;;;5069550;28;45244;-72
2023/05/30 07:24:19;;;;;;;2.88;2.10;;;22.70;42.70;;;;;;5069510;28;45351;-72
2023/05/30 07:26:46;;;;;;;3.75;2.10;;;22.70;42.70;;;;;;5069724;28;45526;-73
2023/05/30 07:29:15;;;;;;;4.20;2.20;;;22.70;42.70;;;;;;5069369;28;45273;-72
2023/05/30 07:31:42;;;;;;;2.55;2.15;;;22.70;42.80;;;;;;5069460;28;45158;-72
2023/05/30 07:34:08;;;;;;;3.55;2.00;;;22.70;42.70;;;;;;5069630;28;45264;-73
2023/05/30 07:36:36;;;;;;;3.47;2.05;;;22.80;42.70;;;;;;5069627;28;45411;-72
2023/05/30 07:39:03;;;;;;;2.42;2.15;;;22.80;42.60;;;;;;5069220;28;45814;-73
2023/05/30 07:41:30;;;;;;;3.25;2.20;;;22.80;42.70;;;;;;5069398;28;45285;-72
2023/05/30 07:43:57;;;;;;;2.83;2.30;;;22.80;42.70;;;;;;5069063;28;45346;-71
2023/05/30 07:46:25;;;;;;;2.50;2.10;;;22.80;42.70;;;;;;5069209;28;45444;-72
2023/05/30 07:48:52;;;;;;;3.55;2.35;;;22.80;42.60;;;;;;5069032;28;45412;-72
2023/05/30 07:51:20;;;;;;;4.50;2.25;;;22.80;42.60;;;;;;5069106;28;45322;-72
2023/05/30 07:53:47;;;;;;;4.85;2.28;;;22.90;42.70;;;;;;5069337;28;45245;-72
2023/05/30 07:56:13;;;;;;;2.53;2.20;;;22.90;42.60;;;;;;5068962;28;45339;-72
2023/05/30 07:58:41;;;;;;;3.15;1.88;;;22.90;42.60;;;;;;5068816;28;45357;-72
2023/05/30 08:01:07;;;;;;;2.65;2.03;;;22.90;42.50;;;;;;5068797;28;45442;-71
2023/05/30 08:03:35;;;;;;;2.15;1.95;;;22.90;42.50;;;;;;5067640;28;45335;-70
2023/05/30 08:06:02;;;;;;;2.47;1.90;;;23.00;42.60;;;;;;5063601;28;45396;-70
2023/05/30 08:08:29;;;;;;;2.95;1.85;;;23.00;42.50;;;;;;5067700;28;47327;-69
2023/05/30 08:10:56;;;;;;;5.47;2.13;;;23.00;42.60;;;;;;5067528;28;45330;-71
2023/05/30 08:13:25;;;;;;;3.25;2.28;;;23.00;42.70;;;;;;5068064;28;45349;-72
2023/05/30 08:15:52;;;;;;;5.75;2.15;;;23.10;42.60;;;;;;5068451;28;45125;-69
2023/05/30 08:18:21;;;;;;;3.83;2.00;;;23.10;42.60;;;;;;5067981;28;46396;-73
2023/05/30 08:20:50;;;;;;;3.60;1.90;;;23.10;43.00;;;;;;5068850;28;45380;-74
2023/05/30 08:23:17;;;;;;;4.20;2.70;;;23.20;42.60;;;;;;5068420;28;45435;-74
2023/05/30 08:25:45;;;;;;;5.18;2.80;;;23.20;44.80;;;;;;5068543;28;45399;-72
2023/05/30 08:28:12;;;;;;;5.18;2.80;;;23.10;44.90;;;;;;5067582;28;45794;-74
2023/05/30 08:30:40;;;;;;;4.60;2.67;;;23.10;44.80;;;;;;5057319;28;45135;-76
2023/05/30 08:33:07;;;;;;;3.60;2.83;;;23.10;45.70;;;;;;5067080;28;45249;-71
2023/05/30 08:35:34;;;;;;;4.50;2.92;;;23.00;45.80;;;;;;5068831;28;45394;-71
2023/05/30 08:38:03;;;;;;;7.35;2.90;;;23.00;46.00;;;;;;5067958;28;45410;-72
2023/05/30 08:40:30;;;;;;;7.50;3.05;;;23.00;45.90;;;;;;5067946;28;45277;-75
2023/05/30 08:42:57;;;;;;;6.65;3.10;;;23.10;46.10;;;;;;5068348;28;45326;-73
2023/05/30 08:45:23;;;;;;;4.40;3.00;;;23.10;46.00;;;;;;5067969;28;45765;-71
2023/05/30 08:47:51;;;;;;;4.30;2.83;;;23.10;45.90;;;;;;5067996;28;45448;-69
2023/05/30 08:50:19;;;;;;;7.63;2.90;;;23.10;46.50;;;;;;5067739;28;45205;-70
2023/05/30 08:52:46;;;;;;;6.28;3.00;;;23.10;46.50;;;;;;5067369;28;45339;-72
2023/05/30 08:55:16;;;;;;;5.93;2.85;;;23.10;46.50;;;;;;5068229;28;45299;-72
2023/05/30 08:57:45;;;;;;;9.85;3.15;;;23.20;46.30;;;;;;5067677;28;45786;-72
2023/05/30 09:00:14;;;;;;;7.80;2.70;;;23.20;46.00;;;;;;5067604;28;45276;-71
2023/05/30 09:02:40;;;;;;;5.78;2.85;;;23.20;46.20;;;;;;5067840;28;45422;-73
2023/05/30 09:05:09;;;;;;;4.93;2.67;;;23.20;46.10;;;;;;5067801;28;45400;-70
2023/05/30 09:07:35;;;;;;;4.85;2.53;;;23.20;45.90;;;;;;5067410;28;45589;-71
2023/05/30 09:10:04;;;;;;;4.07;2.65;;;23.30;46.00;;;;;;5067594;28;45242;-73
2023/05/30 09:12:32;;;;;;;6.50;2.95;;;23.30;45.70;;;;;;5067742;28;45385;-72
2023/05/30 09:14:59;;;;;;;6.40;2.80;;;23.30;45.90;;;;;;5067971;28;45201;-71
2023/05/30 09:17:26;;;;;;;6.25;3.08;;;23.30;45.90;;;;;;5066388;28;46396;-70
2023/05/30 09:19:53;;;;;;;3.78;2.83;;;23.30;46.20;;;;;;5066503;28;45340;-70
2023/05/30 09:22:21;;;;;;;3.92;2.67;;;23.30;45.90;;;;;;5067659;28;45391;-72
2023/05/30 09:24:54;;;;;;;3.97;2.70;;;23.40;46.10;;;;;;5067758;28;45368;-70
2023/05/30 09:27:22;;;;;;;7.00;3.33;;;23.40;46.50;;;;;;5066776;28;46665;-72
2023/05/30 09:29:50;;;;;;;4.00;2.58;;;23.50;46.40;;;;;;5067388;28;45351;-72
2023/05/30 09:32:17;;;;;;;4.53;3.08;;;23.50;46.30;;;;;;5067499;28;45308;-71
2023/05/30 09:34:53;;;;;;;4.10;2.72;;;23.50;46.20;;;;;;5067655;28;45391;-71
2023/05/30 09:37:20;;;;;;;5.63;3.03;;;23.60;46.20;;;;;;5066892;28;47260;-70
2023/05/30 09:40:06;;;;;;;5.90;2.53;;;23.60;46.00;;;;;;5066440;28;45349;-71
2023/05/30 09:42:39;;;;;;;5.50;3.08;;;23.60;45.80;;;;;;5066464;28;45351;-72
2023/05/30 09:45:09;;;;;;;6.57;3.17;;;23.60;46.00;;;;;;5067380;28;45451;-71
2023/05/30 09:47:39;;;;;;;5.18;2.90;;;23.60;45.80;;;;;;5066998;28;45457;-70
2023/05/30 09:50:07;;;;;;;5.15;2.65;;;23.70;45.90;;;;;;5067008;28;45351;-69
2023/05/30 09:52:34;;;;;;;7.15;2.60;;;23.70;45.80;;;;;;5066669;28;45430;-71
2023/05/30 09:55:05;;;;;;;6.10;3.38;;;23.80;45.80;;;;;;5067047;28;45547;-68
2023/05/30 09:57:35;;;;;;;5.70;3.08;;;23.80;46.00;;;;;;5064299;28;45318;-71
2023/05/30 10:00:06;;;;;;;5.97;2.80;;;23.90;46.00;;;;;;5067095;28;45318;-71
2023/05/30 10:02:34;;;;;;;8.10;3.25;;;23.80;46.00;;;;;;5066799;28;45340;-71
2023/05/30 10:05:01;;;;;;;3.70;2.55;;;23.90;45.90;;;;;;5066866;28;45429;-70
2023/05/30 10:07:28;;;;;;;7.93;2.97;;;23.90;45.80;;;;;;5066848;28;46343;-70
2023/05/30 10:09:55;;;;;;;5.68;2.90;;;23.90;45.80;;;;;;5066564;28;45324;-71
2023/05/30 10:12:23;;;;;;;4.68;3.10;;;23.90;45.70;;;;;;5066711;28;45296;-70
2023/05/30 10:14:50;;;;;;;3.65;3.08;;;24.00;45.70;;;;;;5067056;28;45340;-67
2023/05/30 10:17:17;;;;;;;5.45;3.15;;;24.00;45.80;;;;;;5066286;28;45250;-69
2023/05/30 10:19:47;;;;;;;6.93;2.53;;;24.00;45.70;;;;;;5065988;28;45347;-71
2023/05/30 10:22:14;;;;;;;4.57;2.85;;;24.10;45.70;;;;;;5066437;28;45273;-72
2023/05/30 10:24:41;;;;;;;4.43;3.03;;;24.10;45.50;;;;;;5066774;28;45299;-72
2023/05/30 10:27:08;;;;;;;6.22;3.30;;;24.20;45.60;;;;;;5066361;28;46774;-70
2023/05/30 10:29:37;;;;;;;6.68;2.70;;;24.20;45.60;;;;;;5065872;28;45427;-70
2023/05/30 10:32:05;;;;;;;4.55;2.70;;;24.30;45.40;;;;;;5066190;28;45379;-72
2023/05/30 10:34:35;;;;;;;7.15;3.75;;;24.30;45.40;;;;;;5066577;28;45588;-72
2023/05/30 10:37:03;;;;;;;5.32;2.97;;;24.40;45.20;;;;;;5066282;28;45480;-71
2023/05/30 10:39:34;;;;;;;5.40;2.92;;;24.40;45.10;;;;;;5066361;28;45332;-72
2023/05/30 10:42:02;;;;;;;4.90;2.78;;;24.40;44.90;;;;;;5065706;28;45423;-71
2023/05/30 10:44:35;;;;;;;5.07;2.90;;;24.40;44.90;;;;;;5066865;28;45490;-72
2023/05/30 10:47:17;;;;;;;7.40;2.85;;;24.50;44.80;;;;;;5066743;28;45403;-73
2023/05/30 10:49:44;;;;;;;5.70;3.28;;;24.50;44.80;;;;;;5066263;28;45374;-73
2023/05/30 10:52:17;;;;;;;10.00;2.80;;;24.50;44.70;;;;;;5066835;28;45401;-72
2023/05/30 10:54:46;;;;;;;4.97;3.22;;;24.60;44.50;;;;;;5067078;28;45288;-71
2023/05/30 10:57:25;;;;;;;6.00;3.05;;;24.70;44.60;;;;;;5067002;28;45387;-71
2023/05/30 10:59:54;;;;;;;4.95;3.25;;;24.70;44.50;;;;;;5066273;28;45265;-71
2023/05/30 11:02:37;;;;;;;6.72;3.10;;;24.70;45.00;;;;;;5066708;28;45278;-72
2023/05/30 11:05:07;;;;;;;4.60;2.75;;;24.70;44.30;;;;;;5067050;28;45466;-71
2023/05/30 11:07:37;;;;;;;4.82;3.38;;;24.80;44.20;;;;;;5066580;28;46627;-70
2023/05/30 11:10:06;;;;;;;7.10;3.13;;;24.80;44.10;;;;;;5066158;28;45348;-70
2023/05/30 11:12:33;;;;;;;4.15;3.10;;;24.90;44.10;;;;;;5066804;28;45360;-71
2023/05/30 11:15:00;;;;;;;5.00;3.13;;;24.90;44.00;;;;;;5061019;28;45482;-71
2023/05/30 11:17:31;;;;;;;4.03;2.95;;;24.90;44.00;;;;;;5065331;28;45251;-72
2023/05/30 11:20:08;;;;;;;4.22;2.97;;;25.00;43.90;;;;;;5065414;28;45469;-68
2023/05/30 11:22:38;;;;;;;3.60;2.88;;;25.00;43.80;;;;;;5065609;28;45311;-70
2023/05/30 11:25:23;;;;;;;5.47;3.10;;;25.10;43.70;;;;;;5065532;28;45566;-69
2023/05/30 11:28:15;;;;;;;5.55;3.08;;;25.20;43.70;;;;;;5065058;28;46267;-69
2023/05/30 11:30:45;;;;;;;5.35;2.83;;;25.20;43.50;;;;;;5064628;28;45347;-68
2023/05/30 11:33:12;;;;;;;4.45;2.85;;;25.30;43.50;;;;;;5065062;28;45375;-70
2023/05/30 11:35:39;;;;;;;4.95;2.80;;;25.30;43.60;;;;;;5065132;28;45641;-70
2023/05/30 11:38:07;;;;;;;4.50;3.10;;;25.40;43.50;;;;;;5064943;28;46450;-71
2023/05/30 11:40:34;;;;;;;4.35;2.90;;;25.40;43.50;;;;;;5064859;28;45666;-71
2023/05/30 11:43:01;;;;;;;4.63;2.72;;;25.50;43.50;;;;;;5064913;28;45339;-68
2023/05/30 11:45:30;;;;;;;4.45;3.10;;;25.50;43.20;;;;;;5065105;28;45420;-70
2023/05/30 11:48:03;;;;;;;5.15;2.90;;;25.60;43.20;;;;;;5064848;28;45355;-70
2023/05/30 11:50:30;;;;;;;5.10;3.20;;;25.70;43.80;;;;;;5064337;28;45321;-70
2023/05/30 11:52:57;;;;;;;4.43;3.08;;;25.70;42.90;;;;;;5064652;28;45273;-69
2023/05/30 11:55:25;;;;;;;4.93;2.90;;;25.80;42.90;;;;;;5064727;28;45278;-69
2023/05/30 11:57:53;;;;;;;4.63;2.97;;;25.80;42.80;;;;;;5064169;28;45375;-71
2023/05/30 12:00:20;;;;;;;5.00;3.05;;;25.90;42.60;;;;;;5064339;28;45444;-69
2023/05/30 12:02:47;;;;;;;3.85;2.80;;;25.90;42.40;;;;;;5065939;28;45304;-71
2023/05/30 12:05:14;;;;;;;4.65;2.95;;;26.00;42.90;;;;;;5067853;28;45576;-69
2023/05/30 12:07:41;;;;;;;4.07;2.67;;;26.00;42.10;;;;;;5067567;28;46353;-70
2023/05/30 12:10:09;;;;;;;5.20;3.30;;;26.00;42.00;;;;;;5067614;28;45375;-69
2023/05/30 12:12:37;;;;;;;3.33;2.78;;;26.10;42.00;;;;;;5067895;28;45363;-72
2023/05/30 12:15:06;;;;;;;4.25;2.78;;;26.20;42.00;;;;;;5068066;28;45237;-73
2023/05/30 12:17:33;;;;;;;3.13;2.75;;;26.20;41.90;;;;;;5067410;28;45413;-71
2023/05/30 12:20:06;;;;;;;7.10;3.20;;;26.30;41.80;;;;;;5067457;28;45256;-70
2023/05/30 12:22:33;;;;;;;4.88;2.78;;;26.30;41.80;;;;;;5067327;28;45389;-70
2023/05/30 12:25:00;;;;;;;4.00;2.92;;;26.40;41.60;;;;;;5067644;28;45486;-70
2023/05/30 12:27:27;;;;;;;4.47;3.00;;;26.40;41.30;;;;;;5066471;28;46650;-69
2023/05/30 12:29:56;;;;;;;5.15;2.95;;;26.50;41.50;;;;;;5067331;28;45292;-69
2023/05/30 12:32:23;;;;;;;7.30;3.00;;;26.50;41.60;;;;;;5067269;28;45305;-70
2023/05/30 12:34:50;;;;;;;4.00;3.22;;;26.50;41.30;;;;;;5067180;28;45620;-70
2023/05/30 12:37:18;;;;;;;7.40;3.00;;;26.60;42.10;;;;;;5067306;28;46461;-70
2023/05/30 12:39:48;;;;;;;3.75;3.08;;;26.60;41.10;;;;;;5064637;28;45295;-70
2023/05/30 12:42:20;;;;;;;4.18;2.97;;;26.60;41.50;;;;;;5066919;28;45333;-70
2023/05/30 12:44:48;;;;;;;8.57;2.70;;;26.70;41.00;;;;;;5067453;28;45245;-67
2023/05/30 12:47:17;;;;;;;4.78;3.03;;;26.80;40.80;;;;;;5067034;28;46660;-70
2023/05/30 12:49:44;;;;;;;4.57;3.10;;;26.80;40.70;;;;;;5067078;28;45331;-68
2023/05/30 12:52:11;;;;;;;6.53;2.83;;;26.80;40.60;;;;;;5067439;28;45322;-70